Time;durP1;ratioP1;P1;durP2;ratioP2;P2;SDS_P1;SDS_P2;PMS_P1;PMS_P2;Temp;Humidity;BMP_temperature;BMP_pressure;BME280_temperature;BME280_humidity;BME280_pressure;Samples;Min_cycle;Max_cycle;Signal;HPM_P1;HPM_P2
2021/08/17 00:02:15;;;;;;;4.1;2.7;;;;;;;14.3;92.08984;938.8483;;;;
2021/08/17 00:04:40;;;;;;;2.6;1.6;;;;;;;14.22;91.63672;938.8253;;;;
2021/08/17 00:07:05;;;;;;;7.3;2.1;;;;;;;14.24;91.9502;938.7885;;;;
2021/08/17 00:10:06;;;;;;;2.6;1.8;;;;;;;14.33;91.49707;938.772;;;;
2021/08/17 00:12:25;;;;;;;3.4;2;;;;;;;14.28;92.3623;938.7988;;;;
2021/08/17 00:14:50;;;;;;;2.4;1.6;;;;;;;14.34;91.76367;938.8345;;;;
2021/08/17 00:17:15;;;;;;;2.5;1.6;;;;;;;14.33;92.52148;938.8801;;;;
2021/08/17 00:19:45;;;;;;;1.7;1.4;;;;;;;14.41;93.2207;938.8558;;;;
2021/08/17 00:22:07;;;;;;;2.6;1.7;;;;;;;14.36;93.06836;938.8625;;;;
2021/08/17 00:24:32;;;;;;;2.2;1.6;;;;;;;14.43;92.79785;938.9597;;;;
2021/08/17 00:27:15;;;;;;;2.4;1.6;;;;;;;14.39;93.05371;938.9185;;;;
2021/08/17 00:29:41;;;;;;;2.5;1.6;;;;;;;14.07;94.52832;938.8808;;;;
2021/08/17 00:32:06;;;;;;;2.7;1.7;;;;;;;14.15;94.17773;938.9567;;;;
2021/08/17 00:34:32;;;;;;;2;1.5;;;;;;;14.11;94.77832;939.0041;;;;
2021/08/17 00:36:58;;;;;;;2.3;1.7;;;;;;;14.23;94.2168;939.0688;;;;
2021/08/17 00:39:23;;;;;;;3.6;1.9;;;;;;;14.26;94.24707;939.0991;;;;
2021/08/17 00:42:02;;;;;;;2.7;1.7;;;;;;;14.22;94.04199;939.1353;;;;
2021/08/17 00:44:27;;;;;;;2.6;1.5;;;;;;;14.28;93.99805;939.1824;;;;
2021/08/17 00:46:53;;;;;;;1.8;1.4;;;;;;;14.24;94.12598;939.2466;;;;
2021/08/17 00:49:18;;;;;;;2.9;1.5;;;;;;;14.17;94.45801;939.2776;;;;
2021/08/17 00:51:43;;;;;;;5.3;2;;;;;;;14.25;93.86523;939.2802;;;;
2021/08/17 00:54:09;;;;;;;4.1;2.3;;;;;;;14.32;92.86523;939.2985;;;;
2021/08/17 00:56:35;;;;;;;2.6;1.9;;;;;;;14.25;92.49512;939.2963;;;;
2021/08/17 00:59:00;;;;;;;2;1.8;;;;;;;13.9;92.86914;939.2484;;;;
2021/08/17 01:01:26;;;;;;;2.3;1.4;;;;;;;13.71;92.70215;939.2733;;;;
2021/08/17 01:03:51;;;;;;;1.9;1.3;;;;;;;13.45;92.7041;939.3019;;;;
2021/08/17 01:06:17;;;;;;;3.4;2.3;;;;;;;13.16;93.89453;939.316;;;;
2021/08/17 01:08:42;;;;;;;1.4;1.3;;;;;;;13.29;93.93262;939.3328;;;;
2021/08/17 01:11:07;;;;;;;1.8;1.4;;;;;;;13.39;92.47363;939.3647;;;;
2021/08/17 01:13:33;;;;;;;2;1.3;;;;;;;13.35;92.65918;939.4735;;;;
2021/08/17 01:15:57;;;;;;;1.9;1.2;;;;;;;13.43;91.99902;939.505;;;;
2021/08/17 01:18:23;;;;;;;1.8;1.1;;;;;;;13.51;91.38379;939.5483;;;;
2021/08/17 01:20:48;;;;;;;1.3;1;;;;;;;13.31;93.26074;939.6735;;;;
2021/08/17 01:23:13;;;;;;;1.2;1.1;;;;;;;13.44;92.88574;939.7114;;;;
2021/08/17 01:25:38;;;;;;;1.8;1.4;;;;;;;13.43;91.45703;939.709;;;;
2021/08/17 01:28:03;;;;;;;1.8;1.4;;;;;;;13.53;90.72266;939.7963;;;;
2021/08/17 01:30:28;;;;;;;2.4;1.6;;;;;;;13.48;90.26074;939.7747;;;;
2021/08/17 01:32:53;;;;;;;1.2;1;;;;;;;13.49;91.2627;940.0067;;;;
2021/08/17 01:35:18;;;;;;;2;1.4;;;;;;;13.27;92.65234;939.9828;;;;
2021/08/17 01:37:44;;;;;;;1.8;1.3;;;;;;;13.25;90.13379;940.0117;;;;
2021/08/17 01:40:09;;;;;;;2;1.5;;;;;;;13.38;91.42383;940.1766;;;;
2021/08/17 01:42:34;;;;;;;1.9;1.4;;;;;;;13.34;92.37988;940.2125;;;;
2021/08/17 01:45:00;;;;;;;1.8;1.4;;;;;;;13.27;93.66504;940.298;;;;
2021/08/17 01:47:25;;;;;;;2.1;1.5;;;;;;;13.31;93.70703;940.2213;;;;
2021/08/17 01:49:50;;;;;;;2.6;1.2;;;;;;;13.18;93.9209;940.3446;;;;
2021/08/17 01:52:15;;;;;;;2.6;1.3;;;;;;;13.25;93.20117;940.3643;;;;
2021/08/17 01:54:40;;;;;;;1.9;1.6;;;;;;;13.38;93.3916;940.407;;;;
2021/08/17 01:57:05;;;;;;;1.5;1.2;;;;;;;13.42;92.94922;940.3834;;;;
2021/08/17 01:59:33;;;;;;;2;1.3;;;;;;;13.44;92.75977;940.4609;;;;
2021/08/17 02:01:57;;;;;;;1.9;1.5;;;;;;;13.39;92.74805;940.5605;;;;
2021/08/17 02:04:21;;;;;;;2.3;1.7;;;;;;;13.43;89.40137;940.5305;;;;
2021/08/17 02:06:46;;;;;;;2.9;1.6;;;;;;;13.53;90.98535;940.5547;;;;
2021/08/17 02:09:11;;;;;;;2;1.6;;;;;;;13.4;92.2666;940.6429;;;;
2021/08/17 02:11:36;;;;;;;2.1;1.3;;;;;;;13.36;92.35156;940.6892;;;;
2021/08/17 02:14:03;;;;;;;2.3;1.4;;;;;;;13.34;93.49707;940.7084;;;;
2021/08/17 02:16:27;;;;;;;2.1;1.4;;;;;;;13.34;92.54297;940.6205;;;;
2021/08/17 02:18:52;;;;;;;2.7;2.1;;;;;;;13.41;92.37402;940.5894;;;;
2021/08/17 02:21:18;;;;;;;2.6;1.6;;;;;;;13.53;91.66309;940.5483;;;;
2021/08/17 02:27:32;;;;;;;2.3;1.5;;;;;;;13.61;89.7373;940.6236;;;;
2021/08/17 02:29:57;;;;;;;1.9;1.3;;;;;;;13.48;89.75488;940.5818;;;;
2021/08/17 02:32:22;;;;;;;3.3;1.7;;;;;;;13.34;91.97754;940.622;;;;
2021/08/17 02:34:47;;;;;;;1.8;1.4;;;;;;;13.42;91.82422;940.6113;;;;
2021/08/17 02:37:12;;;;;;;2.4;1.9;;;;;;;13.25;91.94922;940.6641;;;;
2021/08/17 02:39:37;;;;;;;3;1.7;;;;;;;13.16;92.51367;940.7088;;;;
2021/08/17 02:42:03;;;;;;;2.5;1.7;;;;;;;13.3;92.23633;940.7139;;;;
2021/08/17 02:44:28;;;;;;;2.8;1.9;;;;;;;13.42;92.00879;940.6945;;;;
2021/08/17 02:47:10;;;;;;;2.2;1.6;;;;;;;13.52;91.95801;940.6755;;;;
2021/08/17 02:49:18;;;;;;;3.2;2;;;;;;;13.59;92.06543;940.5964;;;;
2021/08/17 02:52:03;;;;;;;3;1.8;;;;;;;13.55;92.56348;940.6739;;;;
2021/08/17 02:54:25;;;;;;;2.5;1.8;;;;;;;13.75;92.19238;940.637;;;;
2021/08/17 02:56:51;;;;;;;2.3;1.5;;;;;;;13.73;92.94727;940.5857;;;;
2021/08/17 02:59:16;;;;;;;3.6;1.6;;;;;;;13.65;92.11523;940.6808;;;;
2021/08/17 03:01:41;;;;;;;2.1;1.3;;;;;;;13.7;92.30762;940.6848;;;;
2021/08/17 03:04:07;;;;;;;1.9;1.6;;;;;;;13.73;92.11914;940.5873;;;;
2021/08/17 03:06:32;;;;;;;2;1.4;;;;;;;13.66;92.32422;940.6656;;;;
2021/08/17 03:08:57;;;;;;;2.7;1.7;;;;;;;13.57;93.25781;940.6292;;;;
2021/08/17 03:11:24;;;;;;;2;1.4;;;;;;;13.38;93.91797;940.6781;;;;
2021/08/17 03:13:47;;;;;;;2.6;1.6;;;;;;;13.43;93.36621;940.7377;;;;
2021/08/17 03:16:13;;;;;;;4.1;1.9;;;;;;;13.48;93.68848;940.6506;;;;
2021/08/17 03:18:38;;;;;;;1.9;1.4;;;;;;;13.6;92.28809;940.6564;;;;
2021/08/17 03:21:03;;;;;;;2;1.6;;;;;;;13.64;92.05371;940.6688;;;;
2021/08/17 03:23:28;;;;;;;2.2;1.7;;;;;;;13.62;92.55664;940.6479;;;;
2021/08/17 03:25:53;;;;;;;2.3;1.6;;;;;;;13.67;92.78418;940.6208;;;;
2021/08/17 03:28:18;;;;;;;3.5;1.9;;;;;;;13.58;93.82324;940.5828;;;;
2021/08/17 03:31:28;;;;;;;3.6;1.7;;;;;;;13.59;93.36523;940.5717;;;;
2021/08/17 03:33:53;;;;;;;2.1;1.8;;;;;;;13.54;93.30957;940.4636;;;;
2021/08/17 03:36:19;;;;;;;2.7;1.7;;;;;;;13.45;93.78418;940.5914;;;;
2021/08/17 03:38:46;;;;;;;2.6;1.7;;;;;;;13.46;94.54492;940.6106;;;;
2021/08/17 03:41:11;;;;;;;2.9;1.9;;;;;;;13.44;94.63281;940.6362;;;;
2021/08/17 03:43:38;;;;;;;3.1;1.7;;;;;;;13.22;95.6748;940.7313;;;;
2021/08/17 03:46:02;;;;;;;2;1.5;;;;;;;13.27;94.61816;940.7514;;;;
2021/08/17 03:48:27;;;;;;;2.4;1.9;;;;;;;13.24;94.7832;940.7257;;;;
2021/08/17 03:50:52;;;;;;;2.2;1.6;;;;;;;13.13;94.95703;940.7975;;;;
2021/08/17 03:53:17;;;;;;;3.2;1.9;;;;;;;13.07;95.87305;940.7853;;;;
2021/08/17 03:55:42;;;;;;;2.9;2;;;;;;;13.18;94.95508;940.8588;;;;
2021/08/17 03:58:08;;;;;;;2.6;1.5;;;;;;;13.08;95.53027;940.8621;;;;
2021/08/17 04:02:44;;;;;;;2.9;1.8;;;;;;;13.23;95.46094;940.9144;;;;
2021/08/17 04:05:09;;;;;;;2.6;1.6;;;;;;;13.28;95.18359;940.9322;;;;
2021/08/17 04:07:34;;;;;;;2.8;1.6;;;;;;;13.3;95.77344;940.9314;;;;
2021/08/17 04:09:59;;;;;;;2.4;1.7;;;;;;;13.32;96.00977;940.9244;;;;
2021/08/17 04:12:24;;;;;;;2.8;1.8;;;;;;;13.34;95.9209;941.0427;;;;
2021/08/17 04:14:49;;;;;;;3.8;2.1;;;;;;;13.38;95.46973;941.03;;;;
2021/08/17 04:17:14;;;;;;;2;1.7;;;;;;;13.43;94.95117;941.0289;;;;
2021/08/17 04:19:40;;;;;;;3.4;1.8;;;;;;;13.42;95.03125;941.0529;;;;
2021/08/17 04:22:04;;;;;;;3.3;2;;;;;;;13.48;94.84766;941.0739;;;;
2021/08/17 04:24:31;;;;;;;2.4;1.7;;;;;;;13.46;93.86621;941.0865;;;;
2021/08/17 04:26:55;;;;;;;2.4;1.9;;;;;;;13.5;93.41504;941.1267;;;;
2021/08/17 04:29:20;;;;;;;3;1.7;;;;;;;13.52;93.80957;941.1884;;;;
2021/08/17 04:31:45;;;;;;;2.5;1.8;;;;;;;13.54;93.80371;941.1668;;;;
2021/08/17 04:34:10;;;;;;;2.7;1.9;;;;;;;13.58;93.45508;941.1637;;;;
2021/08/17 04:36:35;;;;;;;2.1;1.6;;;;;;;13.6;93.4375;941.2134;;;;
2021/08/17 04:39:00;;;;;;;3.2;1.9;;;;;;;13.57;93.72949;941.2261;;;;
2021/08/17 04:41:25;;;;;;;2.9;1.8;;;;;;;13.61;93.39355;941.2806;;;;
2021/08/17 04:43:51;;;;;;;2;1.5;;;;;;;13.66;92.47168;941.2537;;;;
2021/08/17 04:46:16;;;;;;;2.4;1.6;;;;;;;13.63;91.86816;941.2425;;;;
2021/08/17 04:48:41;;;;;;;1.6;1.5;;;;;;;13.63;92.30566;941.1985;;;;
2021/08/17 04:51:06;;;;;;;2.6;1.6;;;;;;;13.68;91.7627;941.3051;;;;
2021/08/17 04:53:31;;;;;;;2;1.5;;;;;;;13.6;91.89746;941.355;;;;
2021/08/17 04:55:56;;;;;;;4.2;1.8;;;;;;;13.64;91.83594;941.3394;;;;
2021/08/17 04:58:21;;;;;;;3;1.8;;;;;;;13.65;91.64355;941.3995;;;;
2021/08/17 05:00:48;;;;;;;3.3;1.4;;;;;;;13.69;91.42188;941.3211;;;;
2021/08/17 05:03:11;;;;;;;2.3;1.6;;;;;;;13.71;91.29883;941.4188;;;;
2021/08/17 05:05:37;;;;;;;2.8;1.5;;;;;;;13.72;92.43945;941.4405;;;;
2021/08/17 05:08:02;;;;;;;2.3;1.5;;;;;;;13.61;92.95703;941.399;;;;
2021/08/17 05:10:29;;;;;;;1.8;1.5;;;;;;;13.54;93.78027;941.4669;;;;
2021/08/17 05:12:54;;;;;;;1.5;1.4;;;;;;;13.66;93.30176;941.5162;;;;
2021/08/17 05:15:19;;;;;;;2.8;1.5;;;;;;;13.71;92.85156;941.4316;;;;
2021/08/17 05:17:44;;;;;;;2.2;1.7;;;;;;;13.62;93.19824;941.4794;;;;
2021/08/17 05:20:09;;;;;;;4.5;3.6;;;;;;;13.71;93.77148;941.5236;;;;
2021/08/17 05:22:34;;;;;;;6.6;5.6;;;;;;;13.67;94.78711;941.4827;;;;
2021/08/17 05:25:35;;;;;;;5.8;4.3;;;;;;;13.75;94.5957;941.4581;;;;
2021/08/17 05:28:01;;;;;;;2.7;2.3;;;;;;;13.55;94.95508;941.5397;;;;
2021/08/17 05:30:26;;;;;;;1.7;1.5;;;;;;;13.67;94.84277;941.5836;;;;
2021/08/17 05:32:51;;;;;;;1.7;1.2;;;;;;;13.63;95.12305;941.5714;;;;
2021/08/17 05:35:18;;;;;;;1.6;1.4;;;;;;;13.7;94.9082;941.5933;;;;
2021/08/17 05:37:43;;;;;;;1.6;1.1;;;;;;;13.84;94.25879;941.5667;;;;
2021/08/17 05:40:08;;;;;;;2.1;1.2;;;;;;;13.79;94.23828;941.6439;;;;
2021/08/17 05:42:33;;;;;;;1.7;1.4;;;;;;;13.95;93.77637;941.6733;;;;
2021/08/17 05:44:59;;;;;;;1.8;1.4;;;;;;;13.92;93.9082;941.6509;;;;
2021/08/17 05:47:25;;;;;;;2;1.6;;;;;;;13.97;93.02246;941.7046;;;;
2021/08/17 05:49:49;;;;;;;1.8;1.4;;;;;;;14.08;92.26074;941.7219;;;;
2021/08/17 05:52:14;;;;;;;1.7;1.2;;;;;;;14.1;91.7832;941.7092;;;;
2021/08/17 05:54:40;;;;;;;1.5;1.3;;;;;;;14.01;92.17871;941.7744;;;;
2021/08/17 05:57:05;;;;;;;2.2;1.5;;;;;;;14.13;92.22852;941.8181;;;;
2021/08/17 05:59:30;;;;;;;2.7;1.7;;;;;;;14.24;90.54688;941.8457;;;;
2021/08/17 06:01:55;;;;;;;2;1.5;;;;;;;14.38;89.62988;941.8666;;;;
2021/08/17 06:04:20;;;;;;;2.2;1.6;;;;;;;14.28;90.0127;941.9019;;;;
2021/08/17 06:06:47;;;;;;;1.9;1.6;;;;;;;14.21;91.28809;941.9183;;;;
2021/08/17 06:09:10;;;;;;;3.8;2;;;;;;;14.31;90.83594;941.8987;;;;
2021/08/17 06:11:35;;;;;;;2.1;1.6;;;;;;;14.31;89.80176;941.9523;;;;
2021/08/17 06:14:01;;;;;;;1.6;1.4;;;;;;;14.42;86.86328;941.9416;;;;
2021/08/17 06:16:36;;;;;;;2.4;1.8;;;;;;;14.29;86.76855;941.9315;;;;
2021/08/17 06:19:02;;;;;;;1.8;1.3;;;;;;;14.2;90.14551;941.9199;;;;
2021/08/17 06:21:27;;;;;;;1.9;1.3;;;;;;;14.21;88.78711;941.9239;;;;
2021/08/17 06:23:52;;;;;;;1.5;1.2;;;;;;;14.3;89.2793;941.9972;;;;
2021/08/17 06:26:18;;;;;;;3.2;1.6;;;;;;;14.43;88.63965;942.0003;;;;
2021/08/17 06:28:44;;;;;;;2.4;1.6;;;;;;;14.5;89.18359;942.1053;;;;
2021/08/17 06:31:08;;;;;;;2.8;2;;;;;;;14.42;89.99512;942.093;;;;
2021/08/17 06:33:33;;;;;;;2;1.7;;;;;;;14.52;87.4248;942.1061;;;;
2021/08/17 06:35:58;;;;;;;3.2;2.1;;;;;;;14.49;87.31152;942.1029;;;;
2021/08/17 06:38:23;;;;;;;3.4;1.8;;;;;;;14.56;87.53516;942.0958;;;;
2021/08/17 06:40:49;;;;;;;2.4;1.7;;;;;;;14.65;86.91992;942.2251;;;;
2021/08/17 06:43:14;;;;;;;2.7;2.1;;;;;;;14.54;87.20898;942.1494;;;;
2021/08/17 06:45:39;;;;;;;3.7;2.5;;;;;;;14.68;86.67285;942.1817;;;;
2021/08/17 06:48:04;;;;;;;4.9;2.2;;;;;;;14.43;89.37695;942.262;;;;
2021/08/17 06:50:29;;;;;;;2.6;1.9;;;;;;;14.39;89.88574;942.3041;;;;
2021/08/17 06:53:05;;;;;;;3.1;2.4;;;;;;;14.29;90.59277;942.3352;;;;
2021/08/17 06:55:31;;;;;;;3.2;2.5;;;;;;;14.35;89.92285;942.3441;;;;
2021/08/17 06:57:56;;;;;;;3.3;2.5;;;;;;;14.38;88.63965;942.3417;;;;
2021/08/17 07:00:23;;;;;;;3.8;2.9;;;;;;;14.43;88.23633;942.3681;;;;
2021/08/17 07:02:48;;;;;;;3.4;2.6;;;;;;;14.65;88.29102;942.3405;;;;
2021/08/17 07:05:14;;;;;;;4.3;2.6;;;;;;;14.43;89.09961;942.2941;;;;
2021/08/17 07:07:39;;;;;;;3.1;2.4;;;;;;;14.3;89.36035;942.1638;;;;
2021/08/17 07:10:06;;;;;;;4;2.5;;;;;;;14.73;87.33984;942.1873;;;;
2021/08/17 07:12:31;;;;;;;3.4;2.3;;;;;;;15.1;86.94043;942.2261;;;;
2021/08/17 07:14:57;;;;;;;3.2;2.5;;;;;;;15.05;86.7334;942.142;;;;
2021/08/17 07:17:21;;;;;;;3.9;2.8;;;;;;;15.23;85.56934;942.1869;;;;
2021/08/17 07:19:46;;;;;;;4.3;2.8;;;;;;;15.14;86.55664;942.1707;;;;
2021/08/17 07:22:11;;;;;;;4;2.7;;;;;;;15.29;85.77734;942.2148;;;;
2021/08/17 07:24:36;;;;;;;3.2;2.5;;;;;;;15.43;85.96582;942.246;;;;
2021/08/17 07:27:01;;;;;;;3.9;2.7;;;;;;;15.55;85.00879;942.1878;;;;
2021/08/17 07:29:26;;;;;;;4;2.8;;;;;;;15.55;84.54492;942.1727;;;;
2021/08/17 07:31:52;;;;;;;3.2;2.5;;;;;;;15.57;83.38379;942.142;;;;
2021/08/17 07:34:17;;;;;;;4.5;2.5;;;;;;;15.53;83.38672;942.2048;;;;
2021/08/17 07:36:42;;;;;;;4.6;2.9;;;;;;;15.69;83.2793;942.269;;;;
2021/08/17 07:39:07;;;;;;;3.6;2.5;;;;;;;15.52;84.28613;942.3019;;;;
2021/08/17 07:41:33;;;;;;;3;2.4;;;;;;;15.53;82.7627;942.2979;;;;
2021/08/17 07:44:02;;;;;;;4.1;2.6;;;;;;;15.55;83.3916;942.3315;;;;
2021/08/17 07:46:27;;;;;;;3.9;2.6;;;;;;;15.65;83.3877;942.2908;;;;
2021/08/17 07:48:53;;;;;;;3.7;2.7;;;;;;;15.71;81.79199;942.3099;;;;
2021/08/17 07:51:25;;;;;;;3.8;2.9;;;;;;;15.72;81.97852;942.3894;;;;
2021/08/17 07:53:50;;;;;;;3.9;2.7;;;;;;;15.59;83.65332;942.3783;;;;
2021/08/17 07:56:15;;;;;;;3.9;2.7;;;;;;;15.48;84.38281;942.4072;;;;
2021/08/17 07:58:40;;;;;;;4.5;3;;;;;;;15.41;82.63477;942.395;;;;
2021/08/17 08:01:05;;;;;;;4;2.8;;;;;;;15.48;84.5791;942.4096;;;;
2021/08/17 08:03:33;;;;;;;4.8;2.8;;;;;;;15.64;83.70801;942.3222;;;;
2021/08/17 08:05:57;;;;;;;3.9;2.7;;;;;;;15.6;81.74902;942.3942;;;;
2021/08/17 08:08:22;;;;;;;4;2.8;;;;;;;15.7;80.54395;942.3083;;;;
2021/08/17 08:10:47;;;;;;;4.4;2.8;;;;;;;15.83;79.36426;942.2656;;;;
2021/08/17 08:13:12;;;;;;;4.5;3;;;;;;;15.96;79.12207;942.3091;;;;
2021/08/17 08:15:37;;;;;;;3.5;2.7;;;;;;;15.89;76.79883;942.2403;;;;
2021/08/17 08:18:02;;;;;;;3.9;2.7;;;;;;;15.89;79.30762;942.2307;;;;
2021/08/17 08:20:29;;;;;;;3.5;2.5;;;;;;;16.4;77.63867;942.2509;;;;
2021/08/17 08:22:54;;;;;;;2.9;2.4;;;;;;;16.59;74.75586;942.2668;;;;
2021/08/17 08:25:19;;;;;;;3.5;2.7;;;;;;;16.51;76.21387;942.1878;;;;
2021/08/17 08:27:44;;;;;;;3.4;2.6;;;;;;;16.57;73.25781;942.2139;;;;
2021/08/17 08:30:09;;;;;;;3;2.2;;;;;;;17.14;75.99805;942.2512;;;;
2021/08/17 08:32:35;;;;;;;3.4;2.7;;;;;;;17.24;70.59863;942.2322;;;;
2021/08/17 08:35:00;;;;;;;3.3;2.3;;;;;;;18.78;70.81152;942.1199;;;;
2021/08/17 08:37:25;;;;;;;2.8;2.1;;;;;;;20.86;62.01563;942.1817;;;;
2021/08/17 08:39:52;;;;;;;2.3;1.9;;;;;;;22.33;56.97852;942.213;;;;
2021/08/17 08:42:16;;;;;;;3.1;2.1;;;;;;;22.09;55.8584;942.223;;;;
2021/08/17 08:44:41;;;;;;;2.8;2.5;;;;;;;21.74;58.22754;942.1738;;;;
2021/08/17 08:47:06;;;;;;;3.2;2.5;;;;;;;21.82;54.19629;942.195;;;;
2021/08/17 08:49:31;;;;;;;3.9;2.6;;;;;;;21.62;58.93652;942.1514;;;;
2021/08/17 08:51:56;;;;;;;2.9;2.2;;;;;;;21;60.22363;942.2528;;;;
2021/08/17 08:54:22;;;;;;;3.1;2.5;;;;;;;20.98;58.32617;942.2014;;;;
2021/08/17 08:56:47;;;;;;;2.8;2.5;;;;;;;20.78;57.60938;942.2335;;;;
2021/08/17 08:59:12;;;;;;;3.5;2.5;;;;;;;20.64;59.34473;942.2505;;;;
2021/08/17 09:01:37;;;;;;;3.7;2.6;;;;;;;20;59.93652;942.1892;;;;
2021/08/17 09:04:02;;;;;;;3.7;2.3;;;;;;;19.64;61.77539;942.0525;;;;
2021/08/17 09:06:28;;;;;;;4.1;2.7;;;;;;;19.14;63.0332;942.1088;;;;
2021/08/17 09:08:53;;;;;;;4;2.8;;;;;;;18.72;66.67285;942.0006;;;;
2021/08/17 09:11:18;;;;;;;3.6;2.7;;;;;;;18.73;68.57129;942.0731;;;;
2021/08/17 09:13:43;;;;;;;3.6;2.4;;;;;;;19.46;66.22461;942.0011;;;;
2021/08/17 09:16:08;;;;;;;2.7;2.1;;;;;;;20.9;61.89355;941.9791;;;;
2021/08/17 09:18:34;;;;;;;3.1;2.6;;;;;;;21.75;57.2207;941.913;;;;
2021/08/17 09:20:59;;;;;;;3.7;2.2;;;;;;;22.56;55.65918;941.8287;;;;
2021/08/17 09:23:24;;;;;;;3.1;2.4;;;;;;;22.93;57.00977;941.8325;;;;
2021/08/17 09:25:49;;;;;;;3.2;2.3;;;;;;;23.27;52.05664;941.7927;;;;
2021/08/17 09:28:15;;;;;;;2.7;2.2;;;;;;;24.79;45.45508;941.7584;;;;
2021/08/17 09:30:40;;;;;;;3.1;2.1;;;;;;;26.02;44.58594;941.7054;;;;
2021/08/17 09:33:05;;;;;;;3.1;2.3;;;;;;;26.22;42.58301;941.6531;;;;
2021/08/17 09:35:30;;;;;;;2.5;2.1;;;;;;;26.12;43.55469;941.613;;;;
2021/08/17 09:37:55;;;;;;;2.7;2.1;;;;;;;25.89;43.98145;941.5994;;;;
2021/08/17 09:40:21;;;;;;;3.8;2.2;;;;;;;24.85;49.56445;941.6497;;;;
2021/08/17 09:42:46;;;;;;;3.1;1.9;;;;;;;24.66;46.93848;941.5999;;;;
2021/08/17 09:45:11;;;;;;;3.1;2.1;;;;;;;24.83;43.71191;941.5641;;;;
2021/08/17 09:47:36;;;;;;;2.7;2.2;;;;;;;24.82;45.5625;941.5153;;;;
2021/08/17 09:50:02;;;;;;;2.8;1.9;;;;;;;23.91;49.51855;941.5182;;;;
2021/08/17 09:52:28;;;;;;;2.7;2.3;;;;;;;24.95;45.0332;941.5325;;;;
2021/08/17 09:54:53;;;;;;;2.6;2.2;;;;;;;24.39;45.75488;941.4822;;;;
2021/08/17 09:57:18;;;;;;;3.3;2.2;;;;;;;23.36;46.84766;941.4108;;;;
2021/08/17 09:59:43;;;;;;;2.4;1.9;;;;;;;23.9;45.75098;941.4171;;;;
2021/08/17 10:02:08;;;;;;;2;1.8;;;;;;;23.93;46.83691;941.337;;;;
2021/08/17 10:04:33;;;;;;;3.5;2.3;;;;;;;24.15;46.48438;941.3215;;;;
2021/08/17 10:06:59;;;;;;;3.5;2.6;;;;;;;23.34;47.17578;941.274;;;;
2021/08/17 10:09:24;;;;;;;4.8;2.3;;;;;;;23.15;50.80957;941.2172;;;;
2021/08/17 10:11:50;;;;;;;3.4;2.3;;;;;;;23.24;48.91699;941.1548;;;;
2021/08/17 10:14:15;;;;;;;2.8;2.1;;;;;;;23.07;48.83789;941.1986;;;;
2021/08/17 10:16:41;;;;;;;3;2.5;;;;;;;22.34;51.96094;941.1635;;;;
2021/08/17 10:19:05;;;;;;;2.6;2.2;;;;;;;22.71;49.86816;941.1635;;;;
2021/08/17 10:21:30;;;;;;;3.4;2.7;;;;;;;23.33;47.97363;941.2241;;;;
2021/08/17 10:23:55;;;;;;;3.1;2.2;;;;;;;24.11;48.25879;941.1658;;;;
2021/08/17 10:26:21;;;;;;;3.2;2.3;;;;;;;24.19;48.18359;941.111;;;;
2021/08/17 10:28:46;;;;;;;3.3;2.6;;;;;;;23.59;51.49609;941.0031;;;;
2021/08/17 10:31:11;;;;;;;3;2.4;;;;;;;23.42;49.75879;941.0225;;;;
2021/08/17 10:33:36;;;;;;;3.3;2;;;;;;;23.37;48.60156;940.9667;;;;
2021/08/17 10:36:02;;;;;;;3.4;2.6;;;;;;;22.44;51.46777;940.965;;;;
2021/08/17 10:38:27;;;;;;;3.3;2.4;;;;;;;22.04;50.03809;940.9856;;;;
2021/08/17 10:40:53;;;;;;;4.6;2.6;;;;;;;22.07;49.30371;940.9712;;;;
2021/08/17 10:43:17;;;;;;;3.4;2.7;;;;;;;21.73;52.16895;941.0001;;;;
2021/08/17 10:45:42;;;;;;;3.8;2.8;;;;;;;22.11;50.17383;940.9247;;;;
2021/08/17 10:48:07;;;;;;;4.2;2.9;;;;;;;23.04;50.98535;940.8668;;;;
2021/08/17 10:50:32;;;;;;;4.6;2.7;;;;;;;22.78;46.04785;940.8521;;;;
2021/08/17 10:52:58;;;;;;;3.8;2.8;;;;;;;22.87;48.4873;940.9275;;;;
2021/08/17 10:55:23;;;;;;;3.8;2.7;;;;;;;23.55;46.31543;940.9051;;;;
2021/08/17 10:57:48;;;;;;;3.3;2.4;;;;;;;23.88;48.68066;940.8792;;;;
2021/08/17 11:00:14;;;;;;;4.1;2.8;;;;;;;24.52;46.6875;940.8356;;;;
2021/08/17 11:02:39;;;;;;;4.1;2.7;;;;;;;23.77;45.65527;940.8002;;;;
2021/08/17 11:05:04;;;;;;;5.4;3;;;;;;;22.91;50.06641;940.7452;;;;
2021/08/17 11:07:31;;;;;;;3.7;2.9;;;;;;;22.5;50.01953;940.783;;;;
2021/08/17 11:09:55;;;;;;;3.5;2.8;;;;;;;21.28;54.44629;940.7576;;;;
2021/08/17 11:12:20;;;;;;;4.1;2.9;;;;;;;20.31;57.85352;940.8948;;;;
2021/08/17 11:14:45;;;;;;;4.4;2.8;;;;;;;20.42;57.57422;940.8805;;;;
2021/08/17 11:17:11;;;;;;;4.3;3.1;;;;;;;19.54;59.2207;940.9537;;;;
2021/08/17 11:19:35;;;;;;;4;2.8;;;;;;;19.45;61.49219;940.9811;;;;
2021/08/17 11:22:01;;;;;;;4.1;3.2;;;;;;;19.59;61.97852;941.0181;;;;
2021/08/17 11:24:26;;;;;;;4;3.1;;;;;;;19.38;60.56152;940.9879;;;;
2021/08/17 11:26:52;;;;;;;5;3.1;;;;;;;19.5;60.15918;940.9332;;;;
2021/08/17 11:29:18;;;;;;;4.1;3;;;;;;;19.43;61.73535;940.9386;;;;
2021/08/17 11:31:43;;;;;;;5.2;3.4;;;;;;;19.32;62.29004;940.9729;;;;
2021/08/17 11:34:09;;;;;;;4.9;3.4;;;;;;;19.42;63.30566;940.9009;;;;
2021/08/17 11:36:34;;;;;;;5.5;3.5;;;;;;;19.73;60.41211;940.9589;;;;
2021/08/17 11:38:59;;;;;;;5.5;3.5;;;;;;;19.94;60.30176;940.8995;;;;
2021/08/17 11:41:24;;;;;;;5.5;3.5;;;;;;;19.68;61.36133;940.8155;;;;
2021/08/17 11:43:50;;;;;;;4.2;3.1;;;;;;;22.08;54.86133;940.8152;;;;
2021/08/17 11:46:15;;;;;;;4.5;3.2;;;;;;;24.48;47.63867;940.7249;;;;
2021/08/17 11:48:40;;;;;;;3.8;3.1;;;;;;;25.15;45.69141;940.6687;;;;
2021/08/17 11:51:05;;;;;;;6.1;3.5;;;;;;;24.26;48.6748;940.7277;;;;
2021/08/17 11:53:30;;;;;;;4.7;3.2;;;;;;;24.54;47.2793;940.6649;;;;
2021/08/17 11:56:01;;;;;;;4.7;3.4;;;;;;;24.76;46.20508;940.7115;;;;
2021/08/17 11:58:22;;;;;;;5;3.1;;;;;;;24.16;47.89844;940.6831;;;;
2021/08/17 12:00:47;;;;;;;4.5;3.1;;;;;;;26.13;43.53125;940.6956;;;;
2021/08/17 12:03:13;;;;;;;4.5;3.5;;;;;;;26.67;39.7002;940.5653;;;;
2021/08/17 12:05:39;;;;;;;4.7;3.5;;;;;;;27.09;42.08398;940.5247;;;;
2021/08/17 12:08:06;;;;;;;5.2;3;;;;;;;27.56;38.03418;940.5475;;;;
2021/08/17 12:10:29;;;;;;;4.6;3.5;;;;;;;26.88;39.87305;940.5415;;;;
2021/08/17 12:12:55;;;;;;;5.2;3.4;;;;;;;26.67;39.4873;940.3839;;;;
2021/08/17 12:15:20;;;;;;;4.9;3.6;;;;;;;24.87;42.74902;940.4472;;;;
2021/08/17 12:17:45;;;;;;;3.9;3.3;;;;;;;24.37;45.39941;940.4321;;;;
2021/08/17 12:20:11;;;;;;;6.4;3.4;;;;;;;24.35;47.15137;940.3688;;;;
2021/08/17 12:22:36;;;;;;;5.1;3.5;;;;;;;23.05;47.79102;940.3335;;;;
2021/08/17 12:25:01;;;;;;;5.4;3.3;;;;;;;22.53;49.02637;940.3331;;;;
2021/08/17 12:27:26;;;;;;;5.2;3.4;;;;;;;21.19;52.52832;940.2494;;;;
2021/08/17 12:29:51;;;;;;;5;3.7;;;;;;;21.33;51.71387;940.2969;;;;
2021/08/17 12:32:19;;;;;;;4.5;3.3;;;;;;;21.23;53.29395;940.3464;;;;
2021/08/17 12:34:45;;;;;;;5.9;4;;;;;;;21.41;53.60742;940.2347;;;;
2021/08/17 12:37:09;;;;;;;4.9;3.5;;;;;;;22.25;51.09473;940.1619;;;;
2021/08/17 12:39:36;;;;;;;4.9;3.4;;;;;;;22.02;52.8252;940.2211;;;;
2021/08/17 12:42:00;;;;;;;6.5;4;;;;;;;22.05;50.8125;940.25;;;;
2021/08/17 12:44:25;;;;;;;4.1;3.3;;;;;;;21.86;51.53027;940.231;;;;
2021/08/17 12:46:50;;;;;;;5.4;3.5;;;;;;;21.59;52.15332;940.1585;;;;
2021/08/17 12:49:15;;;;;;;6;4.1;;;;;;;21.19;55.34863;940.0881;;;;
2021/08/17 12:51:40;;;;;;;6;4.1;;;;;;;21.38;55.39453;940.1716;;;;
2021/08/17 12:54:05;;;;;;;6;3.6;;;;;;;21.34;54.73438;940.1824;;;;
2021/08/17 12:56:30;;;;;;;4.7;3.5;;;;;;;21.64;53.16699;940.0939;;;;
2021/08/17 12:58:55;;;;;;;6.1;4.1;;;;;;;20.94;56.8252;940.017;;;;
2021/08/17 13:01:21;;;;;;;6.8;4.8;;;;;;;20.12;60.19727;939.9877;;;;
2021/08/17 13:03:46;;;;;;;6;3.9;;;;;;;20.73;57.66113;940.0195;;;;
2021/08/17 13:06:12;;;;;;;5.9;3.9;;;;;;;21.43;55.81055;940.0229;;;;
2021/08/17 13:08:39;;;;;;;6.1;4;;;;;;;21.24;56.35938;939.9941;;;;
2021/08/17 13:11:04;;;;;;;6.1;4;;;;;;;21.23;55.04883;939.9724;;;;
2021/08/17 13:13:29;;;;;;;5.8;3.8;;;;;;;21.28;53.26367;939.9372;;;;
2021/08/17 13:15:54;;;;;;;5.9;3.7;;;;;;;21.13;55.16406;939.9086;;;;
2021/08/17 13:18:20;;;;;;;5.9;4.2;;;;;;;20.74;53.80664;939.9578;;;;
2021/08/17 13:20:46;;;;;;;6.4;3.9;;;;;;;20.14;56.49902;939.9211;;;;
2021/08/17 13:23:11;;;;;;;5.8;4;;;;;;;20.09;59.70215;939.9004;;;;
2021/08/17 13:25:36;;;;;;;5.4;3.8;;;;;;;20.46;59.04004;939.841;;;;
2021/08/17 13:28:02;;;;;;;5.8;3.8;;;;;;;20.65;56.74023;939.8572;;;;
2021/08/17 13:30:27;;;;;;;4.7;3.6;;;;;;;20.8;58.11621;939.8541;;;;
2021/08/17 13:32:52;;;;;;;5.6;3.6;;;;;;;20.54;58.07129;939.9108;;;;
2021/08/17 13:35:17;;;;;;;5.2;3.9;;;;;;;20.62;56.7832;939.9752;;;;
2021/08/17 13:37:44;;;;;;;5.4;3.5;;;;;;;20.88;55.18066;940.0212;;;;
2021/08/17 13:40:08;;;;;;;5.5;3.6;;;;;;;20.86;56.125;940.0267;;;;
2021/08/17 13:42:33;;;;;;;5.4;3.4;;;;;;;20.61;56.83008;939.9995;;;;
2021/08/17 13:45:00;;;;;;;5.6;3.7;;;;;;;21.12;55.61914;940.0206;;;;
2021/08/17 13:47:25;;;;;;;5.6;3.7;;;;;;;21.42;53.80859;940.0642;;;;
2021/08/17 13:49:51;;;;;;;5.8;4;;;;;;;21.15;56.17383;940.0408;;;;
2021/08/17 13:52:16;;;;;;;5.4;3.7;;;;;;;20.81;56.48047;940.0513;;;;
2021/08/17 13:54:41;;;;;;;6.1;4.1;;;;;;;21.14;57.15332;940.178;;;;
2021/08/17 13:57:07;;;;;;;5.8;4.1;;;;;;;20.41;56.24316;940.1122;;;;
2021/08/17 13:59:33;;;;;;;6.3;4.4;;;;;;;19.62;58.90625;940.1749;;;;
2021/08/17 14:01:58;;;;;;;7.1;4.2;;;;;;;19.87;59.91797;940.2101;;;;
2021/08/17 14:04:23;;;;;;;6.6;4.9;;;;;;;19.63;58.28809;940.1353;;;;
2021/08/17 14:06:49;;;;;;;6.1;4;;;;;;;19.74;57.88281;940.1595;;;;
2021/08/17 14:09:13;;;;;;;7.8;4.6;;;;;;;19.99;56.9707;940.0958;;;;
2021/08/17 14:11:39;;;;;;;6.9;4.6;;;;;;;19.96;58.26172;940.0383;;;;
2021/08/17 14:14:04;;;;;;;6.8;4.5;;;;;;;19.73;55.13086;940.0634;;;;
2021/08/17 14:16:29;;;;;;;7.8;5;;;;;;;18.98;60.43848;940.1234;;;;
2021/08/17 14:18:54;;;;;;;7.1;5.1;;;;;;;19.14;60.0752;940.0461;;;;
2021/08/17 14:21:19;;;;;;;8.5;5.2;;;;;;;19.39;58.81738;940.1396;;;;
2021/08/17 14:23:44;;;;;;;7.4;4.6;;;;;;;19.73;57.58984;940.1217;;;;